Řízení letového provozu České republiky
Letiste: LKPD Aktualizace: 20.07.2018 15:01:06  UTC
 METAR LKPD 20.07. 15:00 ...
METAR LKPD 201500Z VRB05KT CAVOK 28/07 Q1013 NOSIG RMK BLU BLU=
 TAF LKPD 20.07. 11:00 ...
TAF LKPD 201100Z 2012/2112 VRB02KT CAVOK=